Time;durP1;ratioP1;P1;durP2;ratioP2;P2;SDS_P1;SDS_P2;PMS_P1;PMS_P2;Temp;Humidity;BMP_temperature;BMP_pressure;BME280_temperature;BME280_humidity;BME280_pressure;Samples;Min_cycle;Max_cycle;Signal;HPM_P1;HPM_P2
2024/02/12 00:01:37;;;;;;;6.00;3.30;;;7.90;99.90;;;;;;5013337;28;20037;-55
2024/02/12 00:04:03;;;;;;;8.00;3.43;;;7.90;99.90;;;;;;5013122;28;20034;-54
2024/02/12 00:06:31;;;;;;;8.77;4.27;;;8.00;99.90;;;;;;5013138;28;20025;-53
2024/02/12 00:08:57;;;;;;;10.73;4.17;;;8.00;99.90;;;;;;5011848;28;20041;-51
2024/02/12 00:11:24;;;;;;;9.73;3.73;;;8.00;99.90;;;;;;5013015;28;20416;-51
2024/02/12 00:13:49;;;;;;;6.73;3.97;;;8.00;99.90;;;;;;5012922;28;20034;-54
2024/02/12 00:16:15;;;;;;;9.83;4.30;;;8.00;99.90;;;;;;5013004;28;20033;-53
2024/02/12 00:18:42;;;;;;;7.40;4.10;;;8.00;99.90;;;;;;5012556;28;20030;-54
2024/02/12 00:21:07;;;;;;;11.03;4.30;;;8.00;99.90;;;;;;5012817;28;20041;-51
2024/02/12 00:23:34;;;;;;;9.83;4.30;;;8.00;99.90;;;;;;5011512;28;20034;-52
2024/02/12 00:25:59;;;;;;;9.17;4.50;;;8.00;99.90;;;;;;5012878;28;20034;-53
2024/02/12 00:28:28;;;;;;;10.37;4.63;;;8.00;99.90;;;;;;5012543;28;20075;-52
2024/02/12 00:30:56;;;;;;;7.13;3.85;;;8.00;99.90;;;;;;5012699;28;20041;-53
2024/02/12 00:33:22;;;;;;;11.43;4.50;;;8.00;99.90;;;;;;5012532;28;20041;-51
2024/02/12 00:35:47;;;;;;;9.17;4.20;;;8.00;99.90;;;;;;5012793;28;20038;-50
2024/02/12 00:38:13;;;;;;;8.23;4.07;;;8.00;99.90;;;;;;5012643;28;20041;-50
2024/02/12 00:40:40;;;;;;;8.17;4.07;;;8.00;99.90;;;;;;5012406;28;20073;-53
2024/02/12 00:43:07;;;;;;;8.57;4.37;;;8.00;99.90;;;;;;5012855;28;20030;-53
2024/02/12 00:45:33;;;;;;;9.40;4.40;;;8.00;99.90;;;;;;5012965;28;20394;-51
2024/02/12 00:47:58;;;;;;;9.30;4.20;;;8.00;99.90;;;;;;5012669;28;20034;-54
2024/02/12 00:50:25;;;;;;;9.90;4.83;;;8.00;99.90;;;;;;5013960;28;20108;-53
2024/02/12 00:52:52;;;;;;;9.13;3.87;;;8.00;99.90;;;;;;5014374;28;20038;-53
2024/02/12 00:55:20;;;;;;;9.17;3.93;;;8.00;99.90;;;;;;5014664;28;20092;-53
2024/02/12 00:57:46;;;;;;;9.33;4.30;;;8.00;99.90;;;;;;5014169;28;20033;-53
2024/02/12 01:00:15;;;;;;;9.70;4.63;;;7.90;99.90;;;;;;5013412;28;20057;-51
2024/02/12 01:02:42;;;;;;;9.60;4.30;;;7.90;99.90;;;;;;5013554;28;20038;-53
2024/02/12 01:05:08;;;;;;;7.57;4.30;;;8.00;99.90;;;;;;5013820;28;20030;-53
2024/02/12 01:07:39;;;;;;;9.57;4.43;;;8.00;99.90;;;;;;5011335;28;20033;-52
2024/02/12 01:10:05;;;;;;;8.60;3.90;;;8.00;99.90;;;;;;5012112;28;20103;-54
2024/02/12 01:12:31;;;;;;;6.43;3.63;;;8.00;99.90;;;;;;5012127;28;20037;-54
2024/02/12 01:14:57;;;;;;;13.43;5.57;;;8.00;99.90;;;;;;5011848;28;20034;-53
2024/02/12 01:17:23;;;;;;;7.90;4.10;;;8.00;99.90;;;;;;5012121;28;20030;-51
2024/02/12 01:19:51;;;;;;;7.83;3.87;;;8.00;99.90;;;;;;5011701;28;20034;-51
2024/02/12 01:22:19;;;;;;;7.30;3.63;;;8.00;99.90;;;;;;5011912;28;20040;-51
2024/02/12 01:24:49;;;;;;;8.00;4.20;;;8.00;99.90;;;;;;5012317;28;20368;-50
2024/02/12 01:27:14;;;;;;;8.40;4.07;;;8.00;99.90;;;;;;5010929;28;20087;-53
2024/02/12 01:29:43;;;;;;;8.37;4.03;;;8.00;99.90;;;;;;5012046;28;20034;-51
2024/02/12 01:32:10;;;;;;;8.27;3.58;;;8.00;99.90;;;;;;5011925;28;20505;-53
2024/02/12 01:34:40;;;;;;;8.60;3.73;;;8.00;99.90;;;;;;5011813;28;20029;-53
2024/02/12 01:37:06;;;;;;;9.70;4.37;;;8.00;99.90;;;;;;5012339;28;20038;-51
2024/02/12 01:39:32;;;;;;;6.17;3.63;;;8.00;99.90;;;;;;5011502;28;20041;-54
2024/02/12 01:41:58;;;;;;;9.23;3.70;;;8.10;99.90;;;;;;5011797;28;20061;-53
2024/02/12 01:44:25;;;;;;;9.87;4.20;;;8.00;99.90;;;;;;5011724;28;20395;-53
2024/02/12 01:46:50;;;;;;;8.60;4.67;;;8.10;99.90;;;;;;5010609;28;20102;-52
2024/02/12 01:49:19;;;;;;;10.73;4.10;;;8.20;99.90;;;;;;5010329;28;20459;-51
2024/02/12 01:51:48;;;;;;;9.98;4.38;;;8.20;99.90;;;;;;5011741;28;20455;-52
2024/02/12 01:54:17;;;;;;;7.55;4.22;;;8.10;99.90;;;;;;5011639;28;20042;-52
2024/02/12 01:56:45;;;;;;;9.37;4.67;;;8.10;99.90;;;;;;5012193;28;20046;-51
2024/02/12 01:59:17;;;;;;;9.43;4.90;;;8.20;99.90;;;;;;5010132;28;20448;-55
2024/02/12 02:01:47;;;;;;;9.13;4.93;;;8.20;99.90;;;;;;5011659;28;20410;-51
2024/02/12 02:04:13;;;;;;;11.00;5.10;;;8.20;99.90;;;;;;5011569;28;20041;-51
2024/02/12 02:06:39;;;;;;;13.23;5.80;;;8.20;99.90;;;;;;5010460;28;20029;-51
2024/02/12 02:09:07;;;;;;;10.80;5.10;;;8.10;99.90;;;;;;5011118;28;20038;-51
2024/02/12 02:11:33;;;;;;;11.63;5.50;;;8.10;99.90;;;;;;5011626;28;20038;-52
2024/02/12 02:13:59;;;;;;;12.50;5.03;;;8.10;99.90;;;;;;5014360;28;20030;-54
2024/02/12 02:16:25;;;;;;;12.30;5.40;;;8.20;99.90;;;;;;5015178;28;20037;-51
2024/02/12 02:18:52;;;;;;;13.13;5.97;;;8.20;99.90;;;;;;5014865;28;20072;-50
2024/02/12 02:21:21;;;;;;;16.93;6.47;;;8.20;99.90;;;;;;5014992;28;20049;-51
2024/02/12 02:23:47;;;;;;;15.73;6.32;;;8.20;99.90;;;;;;5014809;28;20028;-51
2024/02/12 02:26:13;;;;;;;15.87;6.60;;;8.10;99.90;;;;;;5014997;28;20106;-54
2024/02/12 02:28:39;;;;;;;19.03;7.13;;;8.10;99.90;;;;;;5014730;28;20116;-52
2024/02/12 02:31:05;;;;;;;20.33;8.17;;;8.10;99.90;;;;;;5014833;28;20410;-51
2024/02/12 02:33:31;;;;;;;18.27;7.63;;;8.10;99.90;;;;;;5014801;28;20030;-53
2024/02/12 02:35:57;;;;;;;15.07;6.77;;;8.20;99.90;;;;;;5014906;28;20298;-53
2024/02/12 02:38:23;;;;;;;17.47;7.73;;;8.20;99.90;;;;;;5014606;28;20329;-52
2024/02/12 02:40:48;;;;;;;24.80;9.03;;;8.10;99.90;;;;;;5014518;28;20534;-54
2024/02/12 02:43:17;;;;;;;21.73;8.83;;;8.20;99.90;;;;;;5014577;28;20036;-50
2024/02/12 02:45:42;;;;;;;17.83;8.23;;;8.20;99.90;;;;;;5014674;28;20041;-49
2024/02/12 02:48:08;;;;;;;21.00;7.60;;;8.10;99.90;;;;;;5014319;28;20022;-53
2024/02/12 02:50:34;;;;;;;20.93;8.77;;;8.10;99.90;;;;;;5014350;28;20057;-51
2024/02/12 02:53:01;;;;;;;22.30;9.00;;;8.10;99.90;;;;;;5014411;28;20037;-52
2024/02/12 02:55:28;;;;;;;25.57;9.63;;;8.10;99.90;;;;;;5014457;28;20471;-53
2024/02/12 02:58:01;;;;;;;27.97;10.47;;;8.10;99.90;;;;;;5014232;28;20036;-52
2024/02/12 03:00:28;;;;;;;27.57;10.20;;;8.10;99.90;;;;;;5014200;28;20263;-55
2024/02/12 03:02:54;;;;;;;28.03;10.40;;;8.10;99.90;;;;;;5014287;28;20379;-52
2024/02/12 03:05:20;;;;;;;25.80;10.70;;;8.10;99.90;;;;;;5012756;28;20030;-49
2024/02/12 03:07:47;;;;;;;28.20;11.43;;;8.20;99.90;;;;;;5014229;28;20099;-50
2024/02/12 03:10:14;;;;;;;29.03;11.13;;;8.10;99.90;;;;;;5014054;28;20045;-50
2024/02/12 03:12:41;;;;;;;33.93;11.30;;;8.10;99.90;;;;;;5014037;28;20038;-52
2024/02/12 03:15:11;;;;;;;27.90;12.10;;;8.10;99.90;;;;;;5013998;28;20108;-50
2024/02/12 03:17:41;;;;;;;28.83;12.17;;;8.10;99.90;;;;;;5014077;28;20368;-51
2024/02/12 03:20:10;;;;;;;33.27;12.67;;;8.20;99.90;;;;;;5012527;28;20479;-53
2024/02/12 03:22:39;;;;;;;35.77;13.57;;;8.20;99.90;;;;;;5014028;28;20041;-54
2024/02/12 03:25:06;;;;;;;33.03;12.65;;;8.10;99.90;;;;;;5013740;28;20038;-53
2024/02/12 03:27:32;;;;;;;29.73;11.67;;;8.20;99.90;;;;;;5013650;28;20033;-53
2024/02/12 03:29:58;;;;;;;31.90;11.97;;;8.10;99.90;;;;;;5013575;28;20505;-50
2024/02/12 03:32:24;;;;;;;30.93;11.40;;;8.00;99.90;;;;;;5013477;28;20030;-53
2024/02/12 03:34:50;;;;;;;33.53;12.07;;;8.00;99.90;;;;;;5013684;28;20026;-55
2024/02/12 03:37:19;;;;;;;26.57;12.07;;;8.10;99.90;;;;;;5013514;28;20125;-54
2024/02/12 03:39:45;;;;;;;26.63;12.00;;;8.10;99.90;;;;;;5013369;28;20034;-54
2024/02/12 03:42:11;;;;;;;29.10;11.37;;;8.00;99.90;;;;;;5013500;28;20034;-51
2024/02/12 03:44:38;;;;;;;25.17;10.90;;;8.00;99.90;;;;;;5013814;28;20080;-52
2024/02/12 03:47:05;;;;;;;33.87;11.17;;;7.90;99.90;;;;;;4995808;28;20128;-54
2024/02/12 04:00:28;;;;;;;29.33;11.53;;;8.00;99.90;;;;;;5013093;28;20034;-51
2024/02/12 04:02:56;;;;;;;26.40;11.30;;;8.00;99.90;;;;;;5013171;28;20037;-53
2024/02/12 04:05:21;;;;;;;32.77;10.97;;;8.00;99.90;;;;;;5013034;28;20037;-49
2024/02/12 04:07:47;;;;;;;27.47;10.97;;;8.00;99.90;;;;;;5012785;28;20406;-51
2024/02/12 04:10:13;;;;;;;27.17;11.23;;;8.00;99.90;;;;;;5011557;28;20560;-52
2024/02/12 04:12:43;;;;;;;26.93;11.07;;;8.00;99.90;;;;;;5012976;28;20065;-52
2024/02/12 04:15:11;;;;;;;24.80;10.67;;;8.00;99.90;;;;;;5012889;28;20407;-51
2024/02/12 04:17:37;;;;;;;25.07;10.73;;;8.00;99.90;;;;;;5011706;28;20030;-51
2024/02/12 04:20:05;;;;;;;25.23;10.17;;;8.00;99.90;;;;;;5012586;28;20062;-52
2024/02/12 04:22:35;;;;;;;26.30;11.00;;;7.90;99.90;;;;;;5012718;28;20069;-51
2024/02/12 04:25:01;;;;;;;24.15;9.40;;;7.90;99.90;;;;;;5012776;28;20034;-49
2024/02/12 04:27:28;;;;;;;26.60;10.60;;;7.80;99.90;;;;;;5012641;28;20037;-52
2024/02/12 04:29:57;;;;;;;25.60;10.40;;;7.70;99.90;;;;;;5012580;28;20061;-55
2024/02/12 04:32:23;;;;;;;24.17;10.55;;;7.60;99.90;;;;;;5012819;28;20037;-49
2024/02/12 04:34:48;;;;;;;26.03;10.90;;;7.70;99.90;;;;;;5012361;28;20030;-50
2024/02/12 04:37:14;;;;;;;23.17;10.77;;;7.70;99.90;;;;;;5012296;28;20022;-52
2024/02/12 04:39:40;;;;;;;27.00;10.70;;;7.70;99.90;;;;;;5012223;28;20056;-49
2024/02/12 04:42:06;;;;;;;28.80;11.40;;;7.60;99.90;;;;;;5012594;28;20033;-51
2024/02/12 04:44:31;;;;;;;23.20;10.40;;;7.60;99.90;;;;;;5012440;28;20445;-49
2024/02/12 04:47:00;;;;;;;28.67;9.83;;;7.50;99.90;;;;;;5011156;28;20092;-51
2024/02/12 04:49:27;;;;;;;27.40;11.32;;;7.50;99.90;;;;;;5012198;28;20034;-48
2024/02/12 04:51:53;;;;;;;30.13;11.03;;;7.40;99.90;;;;;;5012343;28;20041;-52
2024/02/12 04:54:19;;;;;;;26.93;11.37;;;7.30;99.90;;;;;;5012289;28;20503;-50
2024/02/12 04:56:45;;;;;;;29.63;11.53;;;7.30;99.90;;;;;;5011150;28;20029;-51
2024/02/12 04:59:12;;;;;;;30.60;11.73;;;7.30;99.90;;;;;;5011965;28;20037;-51
2024/02/12 05:01:39;;;;;;;31.40;12.67;;;7.20;99.90;;;;;;5012238;28;20034;-52
2024/02/12 05:04:04;;;;;;;30.47;12.30;;;7.30;99.90;;;;;;5012008;28;20036;-50
2024/02/12 05:06:32;;;;;;;30.77;12.23;;;7.30;99.90;;;;;;5012139;28;20026;-50
2024/02/12 05:09:05;;;;;;;30.87;11.93;;;7.20;99.90;;;;;;5011918;28;20034;-52
2024/02/12 05:11:33;;;;;;;33.03;13.33;;;7.20;99.90;;;;;;5012078;28;20078;-50
2024/02/12 05:14:00;;;;;;;34.87;13.10;;;7.20;99.90;;;;;;5012149;28;20037;-49
2024/02/12 05:16:35;;;;;;;28.43;12.23;;;7.20;99.90;;;;;;5011996;28;20436;-54
2024/02/12 05:24:30;;;;;;;31.87;12.90;;;7.10;99.90;;;;;;5011889;28;20034;-52
2024/02/12 05:26:57;;;;;;;35.93;12.77;;;7.10;99.90;;;;;;5010698;28;20029;-52
2024/02/12 05:29:26;;;;;;;35.90;13.60;;;7.00;99.90;;;;;;5011623;28;20506;-52
2024/02/12 05:31:53;;;;;;;38.95;13.70;;;7.00;99.90;;;;;;5011994;28;20088;-52
2024/02/12 05:34:23;;;;;;;35.83;14.10;;;7.00;99.90;;;;;;5011817;28;20083;-51
2024/02/12 05:36:50;;;;;;;33.93;14.27;;;7.00;99.90;;;;;;5011893;28;20077;-50
2024/02/12 05:39:16;;;;;;;34.40;13.93;;;7.00;99.90;;;;;;5011557;28;20073;-53
2024/02/12 05:41:42;;;;;;;36.93;13.67;;;6.90;99.90;;;;;;5011716;28;20040;-49
2024/02/12 05:44:08;;;;;;;38.23;14.50;;;7.00;99.90;;;;;;5011795;28;20026;-49
2024/02/12 05:46:34;;;;;;;36.10;14.30;;;7.00;99.90;;;;;;5011807;28;20053;-52
2024/02/12 05:49:00;;;;;;;34.77;14.43;;;6.90;99.90;;;;;;5014720;28;20033;-53
2024/02/12 05:51:26;;;;;;;41.50;14.57;;;7.00;99.90;;;;;;5015608;28;20108;-51
2024/02/12 05:53:52;;;;;;;36.90;13.80;;;7.00;99.90;;;;;;5015524;28;20057;-50
2024/02/12 05:56:21;;;;;;;42.40;13.23;;;7.00;99.90;;;;;;5015478;28;20048;-50
2024/02/12 05:58:47;;;;;;;35.95;14.20;;;7.00;99.90;;;;;;5015446;28;20109;-50
2024/02/12 06:01:12;;;;;;;40.77;14.50;;;7.00;99.90;;;;;;5015410;28;20116;-51
2024/02/12 06:03:39;;;;;;;42.27;15.77;;;7.10;99.90;;;;;;5015219;28;20479;-49
2024/02/12 06:06:05;;;;;;;40.17;13.53;;;7.10;99.90;;;;;;5015408;28;20034;-50
2024/02/12 06:08:31;;;;;;;40.43;14.63;;;7.10;99.90;;;;;;5015149;28;20121;-52
2024/02/12 06:10:56;;;;;;;39.30;15.27;;;7.10;99.90;;;;;;5015092;28;20034;-52
2024/02/12 06:13:22;;;;;;;40.53;14.67;;;7.30;99.90;;;;;;5015110;28;20026;-51
2024/02/12 06:15:47;;;;;;;35.63;13.90;;;7.40;99.90;;;;;;5013917;28;20036;-55
2024/02/12 06:18:13;;;;;;;33.57;14.30;;;7.40;99.90;;;;;;5014985;28;20514;-51
2024/02/12 06:20:39;;;;;;;36.20;14.07;;;7.40;99.90;;;;;;5013604;28;20042;-52
2024/02/12 06:23:05;;;;;;;37.50;15.70;;;7.40;99.90;;;;;;5014954;28;20030;-50
2024/02/12 06:25:31;;;;;;;37.37;15.47;;;7.50;99.90;;;;;;5015018;28;20033;-50
2024/02/12 06:27:57;;;;;;;45.07;15.73;;;7.50;99.90;;;;;;5014693;28;20395;-51
2024/02/12 06:30:23;;;;;;;39.83;15.87;;;7.50;99.90;;;;;;5014873;28;20083;-52
2024/02/12 06:32:49;;;;;;;39.07;15.40;;;7.50;99.90;;;;;;5014843;28;20065;-54
2024/02/12 06:35:16;;;;;;;40.80;16.53;;;7.50;99.90;;;;;;5014763;28;20033;-53
2024/02/12 06:37:46;;;;;;;34.30;14.83;;;7.60;99.90;;;;;;5014546;28;20125;-50
2024/02/12 06:40:12;;;;;;;36.00;15.40;;;7.60;99.90;;;;;;5014647;28;20041;-51
2024/02/12 06:42:38;;;;;;;38.80;14.47;;;7.60;99.90;;;;;;5014723;28;20026;-53
2024/02/12 06:45:04;;;;;;;35.47;15.60;;;7.50;99.90;;;;;;5014643;28;20028;-54
2024/02/12 06:47:30;;;;;;;33.33;13.77;;;7.50;99.90;;;;;;5014556;28;20034;-50
2024/02/12 06:49:55;;;;;;;37.97;14.13;;;7.50;99.90;;;;;;5014408;28;20049;-52
2024/02/12 06:52:21;;;;;;;42.20;15.13;;;7.50;99.90;;;;;;5014441;28;20116;-52
2024/02/12 06:54:47;;;;;;;37.40;14.63;;;7.40;99.90;;;;;;5014480;28;20040;-50
2024/02/12 06:57:14;;;;;;;41.57;15.37;;;7.40;99.90;;;;;;5014680;28;20386;-51
2024/02/12 06:59:41;;;;;;;38.33;15.00;;;7.50;99.90;;;;;;5013675;28;20487;-50
2024/02/12 07:02:07;;;;;;;35.83;14.60;;;7.40;99.90;;;;;;5013215;28;20026;-53
2024/02/12 07:04:32;;;;;;;34.10;14.37;;;7.40;99.90;;;;;;5012912;28;20152;-49
2024/02/12 07:06:58;;;;;;;32.87;13.80;;;7.40;99.90;;;;;;5014223;28;20026;-49
2024/02/12 07:09:24;;;;;;;37.07;14.60;;;7.40;99.90;;;;;;5013959;28;20391;-49
2024/02/12 07:11:51;;;;;;;39.23;14.07;;;7.40;99.90;;;;;;5014470;28;20399;-51
2024/02/12 07:14:16;;;;;;;40.53;15.47;;;7.40;99.90;;;;;;5014295;28;20030;-50
2024/02/12 07:16:44;;;;;;;37.60;15.37;;;7.40;99.90;;;;;;5014106;28;20509;-50
2024/02/12 07:19:10;;;;;;;34.73;14.70;;;7.40;99.90;;;;;;5013772;28;20341;-51
2024/02/12 07:21:36;;;;;;;37.00;15.63;;;7.50;99.90;;;;;;5013844;28;20038;-50
2024/02/12 07:24:01;;;;;;;38.70;14.80;;;7.50;99.90;;;;;;5013821;28;20041;-51
2024/02/12 07:26:27;;;;;;;35.80;14.97;;;7.50;99.90;;;;;;5013842;28;20085;-49
2024/02/12 07:28:52;;;;;;;38.30;13.97;;;7.50;99.90;;;;;;5013610;28;20041;-49
2024/02/12 07:31:18;;;;;;;36.83;15.07;;;7.50;99.90;;;;;;5013731;28;20033;-52
2024/02/12 07:33:44;;;;;;;37.50;14.93;;;7.50;99.90;;;;;;5013770;28;20479;-49
2024/02/12 07:36:09;;;;;;;40.33;15.50;;;7.50;99.90;;;;;;5013575;28;20029;-51
2024/02/12 07:38:38;;;;;;;35.60;16.00;;;7.50;99.90;;;;;;5013437;28;20088;-51
2024/02/12 07:41:04;;;;;;;35.25;14.60;;;7.60;99.90;;;;;;5013437;28;20026;-49
2024/02/12 07:43:30;;;;;;;38.27;14.77;;;7.60;99.90;;;;;;5013527;28;20566;-51
2024/02/12 07:45:55;;;;;;;35.77;14.60;;;7.70;99.90;;;;;;5013498;28;20022;-49
2024/02/12 07:48:22;;;;;;;39.53;15.23;;;7.70;99.90;;;;;;5013288;28;20028;-50
2024/02/12 07:50:51;;;;;;;41.80;15.13;;;7.70;99.90;;;;;;5013274;28;20038;-50
2024/02/12 07:53:24;;;;;;;42.17;16.37;;;7.70;99.90;;;;;;5013206;28;20522;-52
2024/02/12 07:55:53;;;;;;;39.70;14.10;;;7.70;99.90;;;;;;5013306;28;20041;-49
2024/02/12 07:58:20;;;;;;;34.78;14.02;;;7.80;99.90;;;;;;5013217;28;20397;-49
2024/02/12 08:00:48;;;;;;;43.10;13.93;;;7.90;99.90;;;;;;5013046;28;20048;-49
2024/02/12 08:03:17;;;;;;;34.67;14.00;;;7.90;99.90;;;;;;5012983;28;20030;-49
2024/02/12 08:05:47;;;;;;;35.97;13.45;;;7.80;99.90;;;;;;5013244;28;20030;-48
2024/02/12 08:08:13;;;;;;;34.30;13.43;;;7.90;99.90;;;;;;5012926;28;20475;-49
2024/02/12 08:10:40;;;;;;;31.37;12.90;;;7.90;99.90;;;;;;5012259;28;20157;-49
2024/02/12 08:13:06;;;;;;;33.73;13.23;;;7.90;99.90;;;;;;5013143;28;20503;-49
2024/02/12 08:15:32;;;;;;;33.03;13.37;;;7.90;99.90;;;;;;5013255;28;20053;-49
2024/02/12 08:17:58;;;;;;;33.30;12.80;;;7.90;99.90;;;;;;5013291;28;20045;-49
2024/02/12 08:20:27;;;;;;;32.77;13.67;;;8.00;99.90;;;;;;5012884;28;20030;-50
2024/02/12 08:22:54;;;;;;;35.78;12.77;;;8.10;99.90;;;;;;5013124;28;20037;-50
2024/02/12 08:25:20;;;;;;;32.47;13.33;;;8.10;99.90;;;;;;5012899;28;20049;-50
2024/02/12 08:27:46;;;;;;;27.20;11.03;;;8.00;99.90;;;;;;5012968;28;20037;-50
2024/02/12 08:30:14;;;;;;;32.70;12.73;;;8.10;99.90;;;;;;5012722;28;20237;-52
2024/02/12 08:32:40;;;;;;;28.80;13.00;;;8.00;99.90;;;;;;5012623;28;20034;-52
2024/02/12 08:35:06;;;;;;;33.23;12.00;;;8.00;99.90;;;;;;5012503;28;20444;-53
2024/02/12 08:37:32;;;;;;;30.17;12.77;;;8.00;99.90;;;;;;5012598;28;20040;-54
2024/02/12 08:39:57;;;;;;;32.40;13.40;;;8.00;99.90;;;;;;5012165;28;20120;-52
2024/02/12 08:42:23;;;;;;;31.17;12.27;;;8.00;99.90;;;;;;5012485;28;20022;-51
2024/02/12 08:44:51;;;;;;;33.67;12.97;;;8.10;99.90;;;;;;5012316;28;20030;-54
2024/02/12 08:47:17;;;;;;;33.30;13.90;;;8.10;99.90;;;;;;5012445;28;20060;-54
2024/02/12 08:49:43;;;;;;;35.43;14.20;;;8.20;99.90;;;;;;5012162;28;20494;-50
2024/02/12 08:52:09;;;;;;;29.80;12.97;;;8.10;99.90;;;;;;5012360;28;20030;-53
2024/02/12 08:54:35;;;;;;;31.60;11.97;;;8.10;99.90;;;;;;5012285;28;20033;-52
2024/02/12 08:57:03;;;;;;;31.13;11.50;;;8.20;99.90;;;;;;5012257;28;20037;-53
2024/02/12 08:59:31;;;;;;;30.17;11.23;;;8.20;99.90;;;;;;5011893;28;20041;-51
2024/02/12 09:01:57;;;;;;;30.97;11.03;;;8.20;99.90;;;;;;5012482;28;20120;-51
2024/02/12 09:04:23;;;;;;;26.20;11.17;;;8.20;99.90;;;;;;5011978;28;20069;-52
2024/02/12 09:06:49;;;;;;;24.37;11.27;;;8.20;99.90;;;;;;5012144;28;20030;-53
2024/02/12 09:09:15;;;;;;;24.63;10.77;;;8.20;99.90;;;;;;5011871;28;20030;-52
2024/02/12 09:11:42;;;;;;;23.90;10.63;;;8.30;99.90;;;;;;5011999;28;20514;-51
2024/02/12 09:14:08;;;;;;;27.20;10.43;;;8.30;99.90;;;;;;5011870;28;20034;-51
2024/02/12 09:16:38;;;;;;;22.07;9.33;;;8.20;99.90;;;;;;5011986;28;20038;-49
2024/02/12 09:19:05;;;;;;;17.53;7.13;;;8.00;99.90;;;;;;5011662;28;20483;-52
2024/02/12 09:21:31;;;;;;;15.70;7.27;;;7.90;99.90;;;;;;5013676;28;20399;-51
2024/02/12 09:23:57;;;;;;;18.37;6.97;;;7.90;99.90;;;;;;5018517;28;20395;-52
2024/02/12 09:26:22;;;;;;;12.97;6.50;;;7.80;99.90;;;;;;5018546;28;20032;-51
2024/02/12 09:28:48;;;;;;;15.13;6.83;;;7.80;99.90;;;;;;5018199;28;20030;-51
2024/02/12 09:31:13;;;;;;;14.57;7.03;;;7.70;99.90;;;;;;5018379;28;20034;-50
2024/02/12 09:33:40;;;;;;;15.73;7.30;;;7.70;99.90;;;;;;5018481;28;20036;-53
2024/02/12 09:36:06;;;;;;;16.67;7.60;;;7.80;99.90;;;;;;5018486;28;20461;-52
2024/02/12 09:38:32;;;;;;;18.27;7.93;;;7.80;99.90;;;;;;5018308;28;20033;-53
2024/02/12 09:40:58;;;;;;;20.37;8.30;;;7.80;99.90;;;;;;5018329;28;20336;-52
2024/02/12 09:43:25;;;;;;;20.40;8.77;;;7.80;99.90;;;;;;5018235;28;20034;-51
2024/02/12 09:45:57;;;;;;;21.87;10.23;;;7.90;99.90;;;;;;5018322;28;20030;-50
2024/02/12 09:48:25;;;;;;;24.53;9.80;;;7.90;99.90;;;;;;5018231;28;20034;-51
2024/02/12 09:50:51;;;;;;;20.57;9.60;;;8.00;99.90;;;;;;5018556;28;20080;-51
2024/02/12 09:53:20;;;;;;;21.60;10.60;;;8.10;99.90;;;;;;5018301;28;20053;-49
2024/02/12 09:55:47;;;;;;;25.87;10.83;;;8.30;99.90;;;;;;5018155;28;20036;-50
2024/02/12 09:58:15;;;;;;;19.77;9.67;;;8.50;99.90;;;;;;5018056;28;20029;-51
2024/02/12 10:00:45;;;;;;;22.53;10.60;;;8.90;99.90;;;;;;5017995;28;20030;-51
2024/02/12 10:03:14;;;;;;;24.97;9.83;;;9.30;99.90;;;;;;5018049;28;20038;-53
2024/02/12 10:05:41;;;;;;;;;;;9.70;99.90;;;;;;5017399;28;20038;-49
2024/02/12 10:08:23;;;;;;;19.33;8.47;;;10.10;99.90;;;;;;5017926;28;19963;-51
2024/02/12 10:10:50;;;;;;;20.97;9.00;;;10.30;99.90;;;;;;5018265;28;20026;-50
2024/02/12 10:13:16;;;;;;;20.03;8.60;;;10.40;99.90;;;;;;5018188;28;20137;-51
2024/02/12 10:15:43;;;;;;;19.57;8.23;;;10.50;99.90;;;;;;5018031;28;20486;-51
2024/02/12 10:18:11;;;;;;;16.97;7.93;;;10.40;99.90;;;;;;5017775;28;20033;-51
2024/02/12 10:20:39;;;;;;;20.80;8.17;;;10.30;99.90;;;;;;5017814;28;20033;-51
2024/02/12 10:23:25;;;;;;;18.33;8.60;;;10.00;99.90;;;;;;5017982;28;20029;-51
2024/02/12 10:25:51;;;;;;;18.60;7.47;;;9.80;99.90;;;;;;5017689;28;20034;-49
2024/02/12 10:28:18;;;;;;;16.47;7.57;;;9.70;99.90;;;;;;5017382;28;20034;-49
2024/02/12 10:30:47;;;;;;;14.67;7.07;;;9.70;99.90;;;;;;5017880;28;20026;-52
2024/02/12 10:33:14;;;;;;;15.57;7.40;;;9.70;99.90;;;;;;5015990;28;20030;-51
2024/02/12 10:35:46;;;;;;;15.80;7.37;;;9.70;99.90;;;;;;5014777;28;20092;-49
2024/02/12 10:38:14;;;;;;;13.60;7.30;;;9.80;99.90;;;;;;5014542;28;20029;-51
2024/02/12 10:41:03;;;;;;;15.23;7.00;;;9.90;99.90;;;;;;5014675;28;20109;-48
2024/02/12 10:43:31;;;;;;;17.17;7.87;;;9.90;99.90;;;;;;5014519;28;20113;-50
2024/02/12 10:45:58;;;;;;;15.47;6.83;;;9.80;99.90;;;;;;5014567;28;20028;-49
2024/02/12 10:48:25;;;;;;;14.93;7.30;;;9.70;99.90;;;;;;5014423;28;20041;-50
2024/02/12 10:50:53;;;;;;;17.07;7.30;;;9.70;99.90;;;;;;5014419;28;20064;-52
2024/02/12 10:53:20;;;;;;;14.77;7.20;;;9.70;99.90;;;;;;5014495;28;20419;-50
2024/02/12 10:55:46;;;;;;;14.87;6.83;;;9.80;99.90;;;;;;5014503;28;20085;-50
2024/02/12 10:58:16;;;;;;;13.20;6.40;;;9.90;99.90;;;;;;5014202;28;20041;-49
2024/02/12 11:00:55;;;;;;;11.83;5.67;;;10.00;99.90;;;;;;5014355;28;20040;-50
2024/02/12 11:03:34;;;;;;;;;;;10.20;99.90;;;;;;5014908;28;20030;-53
2024/02/12 11:06:00;;;;;;;11.57;4.80;;;10.20;99.90;;;;;;5014250;28;20000;-49
2024/02/12 11:08:27;;;;;;;15.00;5.77;;;10.10;99.90;;;;;;5014050;28;20029;-50
2024/02/12 11:10:57;;;;;;;11.63;5.67;;;10.10;99.90;;;;;;5014082;28;20065;-52
2024/02/12 11:13:32;;;;;;;11.63;5.67;;;10.10;99.90;;;;;;5014190;28;20105;-53
2024/02/12 11:15:58;;;;;;;14.20;5.40;;;10.20;99.90;;;;;;5014056;28;20034;-52
2024/02/12 11:18:34;;;;;;;15.33;6.90;;;10.20;99.90;;;;;;5013864;28;20030;-52
2024/02/12 11:21:01;;;;;;;11.03;5.10;;;10.30;99.90;;;;;;5013782;28;20054;-53
2024/02/12 11:23:28;;;;;;;8.40;4.40;;;10.30;99.90;;;;;;5013925;28;20482;-53
2024/02/12 11:25:59;;;;;;;10.07;4.30;;;10.30;99.90;;;;;;5013910;28;20038;-52
2024/02/12 11:28:30;;;;;;;9.00;4.37;;;10.30;99.90;;;;;;5013651;28;20105;-50
2024/02/12 11:30:56;;;;;;;7.27;4.10;;;10.30;99.90;;;;;;5013859;28;20080;-53
2024/02/12 11:33:24;;;;;;;6.53;3.97;;;10.20;99.90;;;;;;5013780;28;20042;-49
2024/02/12 11:36:07;;;;;;;8.07;4.28;;;10.20;99.90;;;;;;5012616;28;20029;-52
2024/02/12 11:38:35;;;;;;;9.40;4.20;;;10.30;99.90;;;;;;5013769;28;20056;-52
2024/02/12 11:41:01;;;;;;;7.80;3.57;;;10.40;99.90;;;;;;5013548;28;20391;-50
2024/02/12 11:43:26;;;;;;;11.40;4.33;;;10.50;99.90;;;;;;5013546;28;20030;-53
2024/02/12 11:46:00;;;;;;;8.47;4.23;;;10.60;99.90;;;;;;5012412;28;20025;-50
2024/02/12 11:48:28;;;;;;;12.38;4.03;;;10.90;99.90;;;;;;5013278;28;20487;-53
2024/02/12 11:50:55;;;;;;;6.30;3.65;;;11.50;99.90;;;;;;5013382;28;20034;-50
2024/02/12 11:53:20;;;;;;;8.93;4.07;;;12.10;99.90;;;;;;5013336;28;20521;-50
2024/02/12 11:55:46;;;;;;;10.27;4.47;;;12.70;99.90;;;;;;5013386;28;20037;-51
2024/02/12 11:58:16;;;;;;;9.93;4.43;;;12.70;99.90;;;;;;5013219;28;20026;-49
2024/02/12 12:00:41;;;;;;;8.30;3.95;;;12.40;99.90;;;;;;5013146;28;20092;-52
2024/02/12 12:03:07;;;;;;;8.25;4.07;;;11.90;99.90;;;;;;5013088;28;20037;-51
2024/02/12 12:05:33;;;;;;;8.93;3.53;;;11.80;99.90;;;;;;5011914;28;20084;-48
2024/02/12 12:08:00;;;;;;;11.88;4.40;;;11.80;99.90;;;;;;5012956;28;20383;-50
2024/02/12 12:10:28;;;;;;;10.52;4.43;;;11.90;99.90;;;;;;5012971;28;20034;-53
2024/02/12 12:12:58;;;;;;;11.65;4.13;;;11.60;99.90;;;;;;5013009;28;20029;-49
2024/02/12 12:15:23;;;;;;;7.05;3.97;;;11.30;99.90;;;;;;5013323;28;20498;-52
2024/02/12 12:17:49;;;;;;;12.05;3.92;;;11.30;99.90;;;;;;5012743;28;20037;-50
2024/02/12 12:20:18;;;;;;;7.80;3.90;;;11.20;99.90;;;;;;5012885;28;20033;-50
2024/02/12 12:22:44;;;;;;;6.40;3.95;;;11.10;99.90;;;;;;5012822;28;20032;-51
2024/02/12 12:25:18;;;;;;;7.27;3.77;;;11.10;99.90;;;;;;5011576;28;20033;-52
2024/02/12 12:27:44;;;;;;;8.70;3.93;;;10.90;99.90;;;;;;5012580;28;20073;-49
2024/02/12 12:30:14;;;;;;;8.87;3.20;;;10.70;99.90;;;;;;5012546;28;21001;-52
2024/02/12 12:32:44;;;;;;;10.30;4.32;;;10.60;99.90;;;;;;5012747;28;20388;-49
2024/02/12 12:35:09;;;;;;;6.43;3.65;;;10.70;99.90;;;;;;5012608;28;20176;-49
2024/02/12 12:37:38;;;;;;;7.17;3.47;;;10.80;99.90;;;;;;5012644;28;20054;-52
2024/02/12 12:40:08;;;;;;;6.32;2.92;;;10.60;99.90;;;;;;5012353;28;20054;-49
2024/02/12 12:42:38;;;;;;;9.53;4.27;;;10.50;99.90;;;;;;5012566;28;20034;-52
2024/02/12 12:45:07;;;;;;;7.63;3.87;;;10.40;99.90;;;;;;5012459;28;20510;-50
2024/02/12 12:47:34;;;;;;;9.77;4.10;;;10.50;99.90;;;;;;5012532;28;20506;-49
2024/02/12 12:50:03;;;;;;;8.80;3.58;;;11.10;99.90;;;;;;5012185;28;20030;-48
2024/02/12 12:52:30;;;;;;;5.88;3.17;;;12.50;99.90;;;;;;5012340;28;20026;-48
2024/02/12 12:54:56;;;;;;;6.80;3.53;;;13.90;99.90;;;;;;5012611;28;20489;-48
2024/02/12 12:57:22;;;;;;;7.32;3.65;;;15.00;99.90;;;;;;5011976;28;20164;-49
2024/02/12 12:59:47;;;;;;;7.25;3.15;;;15.50;99.90;;;;;;5012068;28;20172;-49